Time;durP1;ratioP1;P1;durP2;ratioP2;P2;SDS_P1;SDS_P2;PMS_P1;PMS_P2;Temp;Humidity;BMP_temperature;BMP_pressure;BME280_temperature;BME280_humidity;BME280_pressure;Samples;Min_cycle;Max_cycle;Signal;HPM_P1;HPM_P2
2021/03/08 00:02:12;;;;;;;10.13;1.87;;;;;;;-2.53;85.40;101309.47;5073352;28;20193;-71
2021/03/08 00:04:37;;;;;;;5.20;1.50;;;;;;;-2.50;85.05;101313.84;5056864;28;20282;-72
2021/03/08 00:07:03;;;;;;;12.13;1.90;;;;;;;-2.36;81.63;101321.78;5074251;28;20182;-71
2021/03/08 00:09:28;;;;;;;3.60;1.40;;;;;;;-2.39;81.87;101316.53;5078247;28;20193;-71
2021/03/08 00:11:54;;;;;;;9.60;1.60;;;;;;;-2.38;81.98;101318.28;5076089;28;20189;-71
2021/03/08 00:14:19;;;;;;;7.47;1.50;;;;;;;-2.45;82.24;101321.72;5077474;28;20536;-72
2021/03/08 00:16:44;;;;;;;11.57;2.10;;;;;;;-2.53;82.05;101321.69;5078333;28;20300;-71
2021/03/08 00:19:10;;;;;;;8.97;2.00;;;;;;;-2.54;81.91;101330.38;5076960;28;20208;-73
2021/03/08 00:21:35;;;;;;;8.10;1.97;;;;;;;-2.52;81.31;101323.44;5077966;28;20176;-71
2021/03/08 00:24:00;;;;;;;9.93;2.30;;;;;;;-2.62;82.00;101327.69;5076955;28;20187;-71
2021/03/08 00:26:26;;;;;;;5.53;1.83;;;;;;;-2.57;81.74;101330.34;5079137;28;20202;-72
2021/03/08 00:28:51;;;;;;;6.43;1.90;;;;;;;-2.67;82.27;101334.59;5086165;28;20171;-73
2021/03/08 00:31:16;;;;;;;8.57;1.60;;;;;;;-2.66;82.16;101340.72;5093293;28;20176;-72
2021/03/08 00:33:41;;;;;;;8.80;1.90;;;;;;;-2.63;82.01;101331.16;5085346;28;20562;-72
2021/03/08 00:36:07;;;;;;;8.07;2.43;;;;;;;-2.68;82.29;101345.03;5078227;28;20180;-72
2021/03/08 00:38:32;;;;;;;6.93;1.50;;;;;;;-2.76;82.92;101349.31;5076985;28;20207;-72
2021/03/08 00:40:57;;;;;;;3.70;1.60;;;;;;;-2.56;81.87;101347.78;5077289;28;20170;-71
2021/03/08 00:43:23;;;;;;;10.20;1.77;;;;;;;-2.54;80.86;101349.56;5076568;28;20608;-72
2021/03/08 00:45:48;;;;;;;9.60;2.43;;;;;;;-2.47;80.88;101345.25;5076496;28;20195;-72
2021/03/08 00:48:13;;;;;;;10.07;1.57;;;;;;;-2.49;80.78;101344.34;5077432;28;20178;-72
2021/03/08 00:50:39;;;;;;;4.93;1.40;;;;;;;-2.58;81.66;101341.69;5076162;28;20167;-72
2021/03/08 00:53:04;;;;;;;2.93;1.10;;;;;;;-2.54;80.65;101346.06;5076822;28;20770;-71
2021/03/08 00:55:30;;;;;;;5.23;1.40;;;;;;;-2.70;81.75;101347.66;5076159;28;20229;-71
2021/03/08 00:57:55;;;;;;;4.27;2.00;;;;;;;-2.61;81.31;101349.47;5076184;28;20206;-72
2021/03/08 01:00:23;;;;;;;5.07;1.47;;;;;;;-2.59;81.13;101347.75;5075830;28;20632;-72
2021/03/08 01:02:48;;;;;;;5.60;2.00;;;;;;;-2.58;80.65;101344.28;5075253;28;20675;-71
2021/03/08 01:05:15;;;;;;;9.57;1.83;;;;;;;-2.62;80.73;101345.09;5076540;28;20441;-72
2021/03/08 01:07:40;;;;;;;10.97;1.70;;;;;;;-2.71;81.11;101345.91;5075495;28;20231;-72
2021/03/08 01:10:16;;;;;;;9.53;1.73;;;;;;;-2.80;81.54;101344.94;5077566;28;20419;-73
2021/03/08 01:12:42;;;;;;;4.70;1.30;;;;;;;-2.73;81.28;101354.59;5077332;28;20186;-72
2021/03/08 01:15:08;;;;;;;15.40;1.90;;;;;;;-2.77;81.58;101358.91;5077259;28;20410;-71
2021/03/08 01:17:35;;;;;;;9.83;2.00;;;;;;;-2.77;81.30;101355.41;5076930;28;20207;-72
2021/03/08 01:20:00;;;;;;;5.83;1.63;;;;;;;-2.80;81.31;101356.25;5074979;28;20444;-72
2021/03/08 01:22:25;;;;;;;3.30;1.20;;;;;;;-2.84;81.37;101357.09;5077187;28;20479;-72
2021/03/08 01:24:51;;;;;;;6.60;1.37;;;;;;;-2.86;81.95;101361.44;5078115;28;20176;-72
2021/03/08 01:27:16;;;;;;;8.13;1.63;;;;;;;-2.82;81.46;101368.44;5076948;28;20557;-72
2021/03/08 01:29:41;;;;;;;4.20;1.20;;;;;;;-2.82;81.50;101358.00;5076932;28;20175;-71
2021/03/08 01:32:07;;;;;;;12.23;2.47;;;;;;;-2.85;81.11;101361.44;5077078;28;20176;-71
2021/03/08 01:34:32;;;;;;;4.30;1.40;;;;;;;-2.81;81.09;101361.47;5058513;28;20222;-72
2021/03/08 01:36:57;;;;;;;2.07;1.00;;;;;;;-2.81;80.76;101359.75;5076741;28;20211;-72
2021/03/08 01:39:23;;;;;;;9.13;1.83;;;;;;;-2.74;80.27;101358.94;5075748;28;20199;-73
2021/03/08 01:41:48;;;;;;;6.80;1.50;;;;;;;-2.80;81.31;101358.88;5074885;28;20179;-71
2021/03/08 01:44:14;;;;;;;6.63;1.77;;;;;;;-2.82;81.10;101358.00;5074976;28;20199;-71
2021/03/08 01:46:39;;;;;;;6.20;1.83;;;;;;;-2.87;81.14;101363.16;5074841;28;20712;-71
2021/03/08 01:49:05;;;;;;;7.70;1.27;;;;;;;-2.95;81.82;101367.44;5074943;28;20650;-72
2021/03/08 01:51:31;;;;;;;5.63;1.30;;;;;;;-2.87;81.28;101363.16;5076372;28;20505;-71
2021/03/08 01:53:56;;;;;;;3.17;1.50;;;;;;;-2.95;81.57;101364.84;5074369;28;20550;-72
2021/03/08 01:56:21;;;;;;;2.93;1.13;;;;;;;-2.91;81.67;101365.75;5075373;28;20204;-72
2021/03/08 01:58:47;;;;;;;3.80;1.57;;;;;;;-2.96;81.57;101363.09;5075286;28;20209;-73
2021/03/08 02:01:12;;;;;;;5.70;1.27;;;;;;;-2.95;81.75;101364.84;5076027;28;20211;-71
2021/03/08 02:03:38;;;;;;;5.80;1.60;;;;;;;-2.92;81.47;101370.09;5074661;28;20699;-71
2021/03/08 02:06:04;;;;;;;7.73;1.73;;;;;;;-2.95;81.48;101372.66;5073973;28;20188;-71
2021/03/08 02:08:30;;;;;;;5.33;1.77;;;;;;;-2.95;81.05;101367.44;5073510;28;20182;-72
2021/03/08 02:10:55;;;;;;;6.63;1.60;;;;;;;-2.99;81.07;101373.47;5074812;28;20411;-71
2021/03/08 02:13:23;;;;;;;11.47;1.73;;;;;;;-3.05;81.97;101368.19;5073962;28;20202;-71
2021/03/08 02:15:58;;;;;;;2.90;1.57;;;;;;;-3.03;81.37;101369.06;5074773;28;20181;-71
2021/03/08 02:18:51;;;;;;;3.43;1.47;;;;;;;-3.04;81.23;101380.38;5073740;28;20952;-71
2021/03/08 02:21:48;;;;;;;4.20;1.33;;;;;;;-2.99;80.58;101378.69;5056722;28;20494;-71
2021/03/08 02:24:45;;;;;;;7.33;1.67;;;;;;;-3.03;80.99;101371.69;5073421;28;20433;-72
2021/03/08 02:27:51;;;;;;;4.30;1.30;;;;;;;-3.04;80.72;101372.53;5065727;28;20420;-71
2021/03/08 02:30:36;;;;;;;3.70;1.27;;;;;;;-3.01;80.28;101372.56;5061000;28;20421;-71
2021/03/08 02:33:02;;;;;;;7.00;1.50;;;;;;;-2.97;79.70;101377.00;5073065;28;20439;-71
2021/03/08 02:35:27;;;;;;;4.73;1.40;;;;;;;-3.00;79.56;101378.69;5073133;28;20425;-71
2021/03/08 02:37:57;;;;;;;4.43;1.60;;;;;;;-2.99;79.70;101383.91;5074312;28;20213;-72
2021/03/08 02:40:30;;;;;;;6.50;1.37;;;;;;;-3.02;79.11;101376.06;5073480;28;20182;-71
2021/03/08 02:42:56;;;;;;;4.47;1.07;;;;;;;-3.03;79.15;101384.75;5073377;28;20495;-71
2021/03/08 02:45:24;;;;;;;4.80;1.30;;;;;;;-2.98;78.77;101383.06;5072863;28;20412;-71
2021/03/08 02:47:50;;;;;;;3.07;1.23;;;;;;;-2.97;79.02;101382.22;5056073;28;20171;-72
2021/03/08 02:50:17;;;;;;;5.73;1.27;;;;;;;-2.99;78.76;101386.53;5072620;28;20464;-72
2021/03/08 02:52:52;;;;;;;6.30;1.70;;;;;;;-2.96;78.16;101390.94;5072643;28;20214;-71
2021/03/08 02:55:18;;;;;;;2.27;1.20;;;;;;;-3.06;79.08;101391.66;5073889;28;20391;-72
2021/03/08 02:57:44;;;;;;;10.63;1.30;;;;;;;-3.08;79.15;101399.50;5072412;28;20451;-72
2021/03/08 03:00:11;;;;;;;6.90;1.40;;;;;;;-3.05;78.63;101389.06;5072471;28;20174;-71
2021/03/08 03:02:39;;;;;;;3.37;1.33;;;;;;;-3.07;79.08;101389.91;5072478;28;20431;-71
2021/03/08 03:05:09;;;;;;;5.00;1.40;;;;;;;-3.05;78.44;101388.19;5072623;28;20421;-71
2021/03/08 03:07:35;;;;;;;4.00;1.10;;;;;;;-2.95;77.30;101390.97;5072831;28;20416;-71
2021/03/08 03:10:03;;;;;;;3.87;1.33;;;;;;;-2.99;77.78;101389.13;5055571;28;20420;-71
2021/03/08 03:12:29;;;;;;;8.40;1.57;;;;;;;-2.99;77.56;101388.25;5073242;28;20627;-71
2021/03/08 03:14:54;;;;;;;2.63;1.00;;;;;;;-3.07;77.82;101393.41;5071988;28;20963;-71
2021/03/08 03:17:20;;;;;;;2.87;1.07;;;;;;;-3.00;76.91;101395.22;5072376;28;20212;-71
2021/03/08 03:19:49;;;;;;;8.23;1.10;;;;;;;-3.01;76.94;101395.22;5072124;28;20215;-72
2021/03/08 03:22:15;;;;;;;2.90;1.10;;;;;;;-3.03;76.98;101397.81;5072303;28;20173;-72
2021/03/08 03:24:41;;;;;;;4.53;1.03;;;;;;;-3.03;76.67;101399.53;5072895;28;20772;-72
2021/03/08 03:27:07;;;;;;;2.30;1.10;;;;;;;-3.11;77.29;101402.06;5055446;28;20213;-72
2021/03/08 03:29:33;;;;;;;5.57;1.37;;;;;;;-3.21;77.71;101408.03;5082452;28;20196;-72
2021/03/08 03:32:00;;;;;;;2.60;1.30;;;;;;;-3.22;77.43;101406.28;5078523;28;20267;-71
2021/03/08 03:34:26;;;;;;;5.23;1.27;;;;;;;-3.22;77.56;101406.28;5085560;28;20428;-71
2021/03/08 03:36:51;;;;;;;7.10;1.00;;;;;;;-3.27;77.71;101415.81;5073864;28;20821;-72
2021/03/08 03:39:17;;;;;;;8.40;1.33;;;;;;;-3.24;77.44;101413.22;5072876;28;20558;-71
2021/03/08 03:41:43;;;;;;;7.33;1.60;;;;;;;-3.22;77.32;101422.84;5074433;28;20232;-71
2021/03/08 03:44:09;;;;;;;5.43;1.20;;;;;;;-3.24;76.91;101421.06;5079208;28;20226;-71
2021/03/08 03:46:53;;;;;;;4.10;1.10;;;;;;;-3.23;77.09;101425.44;5080156;28;20178;-71
2021/03/08 03:49:18;;;;;;;3.27;1.00;;;;;;;-3.27;76.73;101421.03;5080211;28;20398;-71
2021/03/08 03:51:44;;;;;;;5.67;1.27;;;;;;;-3.41;78.02;101422.56;5080177;28;20415;-71
2021/03/08 03:54:10;;;;;;;5.10;1.60;;;;;;;-3.42;77.92;101426.03;5078588;28;20213;-71
2021/03/08 03:56:41;;;;;;;7.60;1.23;;;;;;;-3.43;77.69;101434.72;5079072;28;20531;-71
2021/03/08 03:59:21;;;;;;;5.10;1.20;;;;;;;-3.51;77.90;101435.50;5062377;28;20214;-72
2021/03/08 04:01:54;;;;;;;2.20;1.00;;;;;;;-3.57;78.43;101439.75;5062085;28;20486;-73
2021/03/08 04:04:34;;;;;;;7.33;1.40;;;;;;;-3.59;78.94;101444.09;5079640;28;20431;-72
2021/03/08 04:07:03;;;;;;;1.47;1.00;;;;;;;-3.55;78.36;101443.25;5080118;28;20491;-72
2021/03/08 04:09:28;;;;;;;4.10;0.90;;;;;;;-3.63;78.81;101456.22;5079801;28;20412;-72
2021/03/08 04:11:56;;;;;;;3.57;1.20;;;;;;;-3.65;78.82;101450.09;5078575;28;20423;-71
2021/03/08 04:14:23;;;;;;;3.73;1.10;;;;;;;-3.64;78.69;101459.66;5078473;28;20746;-71
2021/03/08 04:16:55;;;;;;;3.77;1.60;;;;;;;-3.64;78.88;101461.41;5061525;28;20426;-71
2021/03/08 04:19:25;;;;;;;2.07;1.00;;;;;;;-3.56;77.43;101463.25;5078419;28;20450;-71
2021/03/08 04:21:54;;;;;;;3.30;1.20;;;;;;;-3.39;75.05;101462.59;5078400;28;20412;-71
2021/03/08 04:24:20;;;;;;;4.63;1.20;;;;;;;-3.21;73.44;101470.72;5078177;28;20931;-71
2021/03/08 04:26:46;;;;;;;4.10;1.10;;;;;;;-3.22;74.09;101463.72;5061401;28;20430;-71
2021/03/08 04:29:12;;;;;;;3.67;0.87;;;;;;;-3.26;73.91;101468.03;5061380;28;20229;-71
2021/03/08 04:31:37;;;;;;;3.10;1.30;;;;;;;-3.23;73.16;101475.03;5078564;28;20496;-71
2021/03/08 04:34:03;;;;;;;2.27;1.00;;;;;;;-3.22;73.10;101469.84;5078185;28;20650;-71
2021/03/08 04:36:29;;;;;;;1.77;0.87;;;;;;;-3.24;72.96;101475.91;5061554;28;20575;-71
2021/03/08 04:38:55;;;;;;;3.80;0.90;;;;;;;-3.27;73.36;101470.63;5078280;28;20452;-72
2021/03/08 04:41:21;;;;;;;4.90;1.30;;;;;;;-3.37;73.79;101480.03;5080658;28;20176;-72
2021/03/08 04:43:47;;;;;;;5.20;1.20;;;;;;;-3.32;73.46;101477.53;5064805;28;20443;-70
2021/03/08 04:46:13;;;;;;;3.43;0.80;;;;;;;-3.17;72.07;101473.38;5066632;28;20627;-71
2021/03/08 04:48:39;;;;;;;4.87;0.90;;;;;;;-3.25;72.42;101469.78;5083646;28;20195;-71
2021/03/08 04:51:05;;;;;;;1.90;1.00;;;;;;;-3.33;73.04;101474.03;5081297;28;20826;-72
2021/03/08 04:53:31;;;;;;;4.47;1.00;;;;;;;-3.27;72.74;101468.91;5080228;28;20212;-71
2021/03/08 04:55:57;;;;;;;7.97;1.20;;;;;;;-3.32;72.73;101487.97;5077864;28;20498;-72
2021/03/08 04:58:22;;;;;;;2.73;1.00;;;;;;;-3.40;73.31;101481.75;5077863;28;20207;-71
2021/03/08 05:00:48;;;;;;;5.73;0.90;;;;;;;-3.43;73.64;101490.41;5061028;28;20267;-70
2021/03/08 05:03:13;;;;;;;2.50;0.90;;;;;;;-3.40;73.27;101487.84;5077857;28;20272;-71
2021/03/08 05:05:39;;;;;;;2.53;1.00;;;;;;;-3.49;73.44;101482.50;5078149;28;20176;-71
2021/03/08 05:08:11;;;;;;;2.57;1.17;;;;;;;-3.53;73.37;101499.84;5076596;28;20256;-72
2021/03/08 05:10:37;;;;;;;4.37;0.83;;;;;;;-3.66;74.09;101484.88;5079456;28;20209;-72
2021/03/08 05:13:07;;;;;;;3.80;1.47;;;;;;;-3.64;74.98;101483.16;5077213;28;20438;-72
2021/03/08 05:15:34;;;;;;;2.83;1.10;;;;;;;-3.65;74.80;101490.97;5079641;28;20474;-72
2021/03/08 05:18:00;;;;;;;1.33;1.07;;;;;;;-3.71;75.42;101489.13;5077210;28;20788;-72
2021/03/08 05:20:27;;;;;;;6.03;1.03;;;;;;;-3.69;74.90;101491.78;5058904;28;20411;-73
2021/03/08 05:22:53;;;;;;;1.73;0.70;;;;;;;-3.65;74.14;101494.44;5077436;28;20950;-72
2021/03/08 05:25:19;;;;;;;5.23;1.03;;;;;;;-3.54;73.89;101492.88;5077133;28;20417;-72
2021/03/08 05:27:45;;;;;;;0.80;0.80;;;;;;;-3.60;74.17;101495.38;5076929;28;20420;-73
2021/03/08 05:30:16;;;;;;;8.57;1.10;;;;;;;-3.77;75.23;101504.66;5076664;28;20438;-70
2021/03/08 05:32:45;;;;;;;2.53;1.33;;;;;;;-3.74;75.46;101515.16;5076542;28;20235;-71
2021/03/08 05:35:11;;;;;;;4.77;1.60;;;;;;;-3.80;75.41;101509.84;5060232;28;20923;-73
2021/03/08 05:37:38;;;;;;;2.27;1.13;;;;;;;-3.97;75.67;101511.31;5077468;28;20411;-71
2021/03/08 05:40:10;;;;;;;3.37;1.30;;;;;;;-3.98;76.86;101515.63;5076188;28;20181;-72
2021/03/08 05:42:36;;;;;;;1.97;0.80;;;;;;;-4.08;77.11;101518.94;5059061;28;20441;-72
2021/03/08 05:45:08;;;;;;;2.43;0.90;;;;;;;-4.06;76.77;101526.78;5059691;28;20780;-73
2021/03/08 05:48:24;;;;;;;5.13;1.97;;;;;;;-4.11;77.99;101524.06;5060101;28;20593;-72
2021/03/08 05:51:17;;;;;;;4.80;1.50;;;;;;;-4.13;78.06;101531.88;5021831;28;20848;-72
2021/03/08 05:54:14;;;;;;;3.77;1.20;;;;;;;-4.05;77.29;101528.56;5076460;28;20456;-74
2021/03/08 05:57:09;;;;;;;2.97;1.23;;;;;;;-3.95;76.77;101533.06;5061225;28;20420;-73
2021/03/08 05:59:43;;;;;;;2.50;1.07;;;;;;;-3.82;76.29;101532.41;5076819;28;20443;-73
2021/03/08 06:02:50;;;;;;;3.47;1.20;;;;;;;-3.65;75.34;101530.09;5079141;28;20399;-71
2021/03/08 06:05:33;;;;;;;5.10;1.20;;;;;;;-3.52;74.68;101540.75;5064065;28;20420;-73
2021/03/08 06:08:20;;;;;;;1.23;0.93;;;;;;;-3.45;74.56;101539.09;5074758;28;20396;-73
2021/03/08 06:11:11;;;;;;;2.57;1.03;;;;;;;-3.41;74.30;101540.03;5075619;28;20450;-72
2021/03/08 06:13:43;;;;;;;2.87;1.13;;;;;;;-3.37;74.30;101541.81;5074183;28;20472;-72
2021/03/08 06:16:10;;;;;;;2.07;0.90;;;;;;;-3.32;73.73;101553.22;5075453;28;20386;-72
2021/03/08 06:18:44;;;;;;;2.03;0.90;;;;;;;-3.39;74.51;101553.97;5073769;28;20557;-74
2021/03/08 06:21:10;;;;;;;2.03;1.10;;;;;;;-3.37;74.44;101565.31;5074946;28;20887;-71
2021/03/08 06:23:36;;;;;;;1.83;1.03;;;;;;;-3.36;74.17;101567.94;5074358;28;20936;-71
2021/03/08 06:26:03;;;;;;;2.17;1.10;;;;;;;-3.36;73.90;101575.78;5074945;28;20465;-72
2021/03/08 06:28:29;;;;;;;4.90;1.33;;;;;;;-3.32;73.62;101572.38;5056214;28;20423;-72
2021/03/08 06:30:55;;;;;;;4.43;1.20;;;;;;;-3.28;73.79;101588.97;5090199;28;20459;-72
2021/03/08 06:33:21;;;;;;;3.97;1.37;;;;;;;-3.21;73.39;101582.97;5080937;28;20468;-70
2021/03/08 06:35:46;;;;;;;1.87;1.07;;;;;;;-3.10;73.69;101590.97;5079179;28;20173;-72
2021/03/08 06:38:11;;;;;;;1.63;1.10;;;;;;;-3.02;73.30;101579.78;5056940;28;20194;-72
2021/03/08 06:40:37;;;;;;;2.43;1.37;;;;;;;-2.94;72.81;101595.56;5073547;28;20182;-72
2021/03/08 06:43:02;;;;;;;2.10;1.10;;;;;;;-2.89;73.02;101605.22;5056389;28;20665;-71
2021/03/08 06:45:27;;;;;;;3.07;1.27;;;;;;;-2.86;72.23;101594.81;5074623;28;20206;-72
2021/03/08 06:47:55;;;;;;;3.70;1.23;;;;;;;-2.80;72.67;101598.38;5074039;28;20174;-71
2021/03/08 06:50:20;;;;;;;2.07;1.10;;;;;;;-2.73;72.16;101600.22;5074029;28;20174;-72
2021/03/08 06:52:46;;;;;;;1.47;0.83;;;;;;;-2.72;72.07;101604.56;5077297;28;20492;-72
2021/03/08 06:55:11;;;;;;;3.80;0.83;;;;;;;-2.71;72.11;101603.72;5074907;28;20174;-71
2021/03/08 06:57:42;;;;;;;1.13;0.73;;;;;;;-2.67;72.38;101613.34;5072545;28;20178;-71
2021/03/08 07:00:12;;;;;;;5.20;1.70;;;;;;;-2.65;71.40;101614.25;5074286;28;20241;-71
2021/03/08 07:02:42;;;;;;;2.53;0.90;;;;;;;-2.72;72.38;101618.50;5073554;28;20449;-72
2021/03/08 07:05:10;;;;;;;3.53;1.10;;;;;;;-2.67;72.19;101627.28;5055796;28;20829;-72
2021/03/08 07:07:51;;;;;;;1.00;0.80;;;;;;;-2.65;71.74;101629.94;5072793;28;20753;-72
2021/03/08 07:10:26;;;;;;;2.97;1.03;;;;;;;-2.59;71.53;101630.91;5072850;28;20439;-72
2021/03/08 07:12:52;;;;;;;1.70;1.00;;;;;;;-2.48;71.09;101633.66;5073827;28;20461;-71
2021/03/08 07:15:17;;;;;;;4.27;0.90;;;;;;;-2.38;71.29;101634.66;5073753;28;20427;-71
2021/03/08 07:17:43;;;;;;;2.47;1.20;;;;;;;-2.25;71.39;101636.53;5054867;28;20668;-72
2021/03/08 07:20:13;;;;;;;4.37;1.30;;;;;;;-2.13;70.89;101630.59;5072871;28;20208;-72
2021/03/08 07:22:39;;;;;;;5.03;0.90;;;;;;;-2.06;70.13;101638.53;5072311;28;20671;-71
2021/03/08 07:25:06;;;;;;;3.03;1.17;;;;;;;-2.11;70.42;101639.34;5072469;28;20399;-71
2021/03/08 07:27:42;;;;;;;1.23;1.03;;;;;;;-2.01;70.78;101639.47;5074087;28;20400;-71
2021/03/08 07:30:09;;;;;;;2.43;1.23;;;;;;;-1.94;70.18;101646.50;5074005;28;20476;-71
2021/03/08 07:32:34;;;;;;;2.23;1.20;;;;;;;-1.90;70.47;101647.41;5072476;28;21070;-71
2021/03/08 07:34:59;;;;;;;3.33;1.30;;;;;;;-1.87;70.25;101652.69;5072666;28;20415;-71
2021/03/08 07:37:24;;;;;;;3.17;1.10;;;;;;;-1.84;70.46;101649.25;5072195;28;20167;-72
2021/03/08 07:39:53;;;;;;;4.80;1.00;;;;;;;-1.80;70.26;101651.03;5071985;28;20173;-71
2021/03/08 07:42:18;;;;;;;3.23;0.90;;;;;;;-1.72;70.47;101655.47;5071992;28;20220;-70
2021/03/08 07:44:49;;;;;;;2.50;1.00;;;;;;;-1.66;70.33;101658.16;5072399;28;20411;-71
2021/03/08 07:47:16;;;;;;;2.33;1.10;;;;;;;-1.55;70.04;101662.59;5072412;28;20193;-71
2021/03/08 07:49:42;;;;;;;1.33;0.87;;;;;;;-1.58;70.19;101658.22;5072195;28;20166;-72
2021/03/08 07:52:09;;;;;;;4.37;1.40;;;;;;;-1.64;70.47;101659.03;5073095;28;20178;-71
2021/03/08 07:54:55;;;;;;;4.30;1.30;;;;;;;-1.62;71.33;101667.78;5072165;28;20523;-71
2021/03/08 07:57:21;;;;;;;2.13;1.33;;;;;;;-1.59;71.54;101654.72;5073113;28;20506;-71
2021/03/08 07:59:47;;;;;;;1.77;1.20;;;;;;;-1.38;71.00;101663.66;5071791;28;20544;-71
2021/03/08 08:02:12;;;;;;;4.70;1.90;;;;;;;-1.28;70.93;101668.09;5073486;28;20498;-71
2021/03/08 08:04:38;;;;;;;3.93;1.93;;;;;;;-1.22;70.50;101662.91;5073300;28;20651;-71
2021/03/08 08:07:05;;;;;;;6.03;2.60;;;;;;;-1.10;71.03;101667.41;5071434;28;20182;-71
2021/03/08 08:09:37;;;;;;;3.87;1.60;;;;;;;-1.03;70.81;101664.84;5071721;28;20228;-71
2021/03/08 08:12:03;;;;;;;3.83;1.50;;;;;;;-0.89;71.25;101671.91;5054847;28;20360;-71
2021/03/08 08:14:28;;;;;;;5.17;1.40;;;;;;;-0.90;71.37;101667.53;5071927;28;20206;-71
2021/03/08 08:16:55;;;;;;;3.83;2.03;;;;;;;-0.90;71.27;101673.66;5071751;28;20495;-71
2021/03/08 08:19:21;;;;;;;6.53;1.40;;;;;;;-0.86;71.63;101671.94;5071475;28;20673;-71
2021/03/08 08:21:47;;;;;;;2.53;1.40;;;;;;;-0.80;71.80;101674.59;5072094;28;20175;-71
2021/03/08 08:24:19;;;;;;;2.00;1.10;;;;;;;-0.69;71.12;101671.19;5055048;28;20279;-71
2021/03/08 08:26:50;;;;;;;2.30;1.23;;;;;;;-0.57;71.72;101680.00;5071698;28;20174;-71
2021/03/08 08:29:23;;;;;;;2.73;1.23;;;;;;;-0.59;72.22;101677.38;5073832;28;20170;-71
2021/03/08 08:31:56;;;;;;;3.63;1.30;;;;;;;-0.41;71.91;101673.97;5077533;28;20159;-71
2021/03/08 08:34:38;;;;;;;2.63;1.00;;;;;;;-0.21;71.70;101680.19;5075012;28;20667;-72
2021/03/08 08:37:12;;;;;;;1.77;1.07;;;;;;;-0.17;71.83;101681.09;5075380;28;20407;-71
2021/03/08 08:39:42;;;;;;;3.87;1.17;;;;;;;0.05;71.70;101685.56;5076303;28;20668;-72
2021/03/08 08:42:18;;;;;;;1.47;0.90;;;;;;;0.21;71.85;101684.72;5075053;28;20178;-71
2021/03/08 08:44:45;;;;;;;2.73;1.30;;;;;;;0.29;71.16;101682.13;5075045;28;20163;-72
2021/03/08 08:47:19;;;;;;;2.77;1.10;;;;;;;0.22;71.23;101680.34;5074981;28;20171;-71
2021/03/08 08:49:47;;;;;;;9.57;2.07;;;;;;;0.16;71.23;101681.22;5074967;28;20168;-72
2021/03/08 08:52:13;;;;;;;5.03;1.53;;;;;;;0.07;71.28;101680.31;5076197;28;20201;-71
2021/03/08 08:54:38;;;;;;;6.03;3.03;;;;;;;0.26;71.91;101684.75;5074902;28;20683;-71
2021/03/08 08:57:03;;;;;;;4.20;1.67;;;;;;;0.41;70.73;101686.53;5075632;28;20562;-72
2021/03/08 08:59:30;;;;;;;2.87;1.20;;;;;;;0.36;70.67;101689.13;5076062;28;20206;-72
2021/03/08 09:02:10;;;;;;;4.17;1.40;;;;;;;0.59;70.02;101687.44;5058239;28;20265;-72
2021/03/08 09:04:36;;;;;;;3.83;1.23;;;;;;;0.60;70.42;101694.44;5076054;28;20178;-72
2021/03/08 09:07:03;;;;;;;8.30;1.27;;;;;;;0.81;69.99;101698.00;5075754;28;20167;-72
2021/03/08 09:09:31;;;;;;;4.07;1.30;;;;;;;0.91;70.01;101697.13;5074982;28;20194;-71
2021/03/08 09:12:01;;;;;;;4.30;1.10;;;;;;;1.04;69.75;101685.72;5074530;28;20186;-71
2021/03/08 09:14:34;;;;;;;4.00;1.13;;;;;;;1.11;70.07;101692.72;5074354;28;20196;-71
2021/03/08 09:17:07;;;;;;;5.77;1.30;;;;;;;1.31;69.06;101692.72;5077884;28;20650;-72
2021/03/08 09:19:32;;;;;;;5.27;1.67;;;;;;;1.50;68.95;101690.94;5075477;28;20314;-72
2021/03/08 09:22:22;;;;;;;6.97;1.40;;;;;;;1.40;67.30;101690.06;5074572;28;20200;-72
2021/03/08 09:24:55;;;;;;;4.70;1.57;;;;;;;1.68;67.18;101695.28;5075602;28;20738;-71
2021/03/08 09:27:24;;;;;;;6.80;1.97;;;;;;;1.80;66.52;101708.38;5076473;28;20252;-72
2021/03/08 09:29:50;;;;;;;6.93;1.70;;;;;;;1.48;67.13;101698.81;5076576;28;20193;-71
2021/03/08 09:32:15;;;;;;;2.73;1.43;;;;;;;1.50;67.09;101704.97;5096438;28;20156;-71
2021/03/08 09:34:41;;;;;;;2.57;1.20;;;;;;;1.81;66.80;101707.50;5096901;28;20188;-71
2021/03/08 09:37:06;;;;;;;6.17;1.60;;;;;;;1.78;66.10;101707.50;5077830;28;20646;-71
2021/03/08 09:39:32;;;;;;;3.17;1.40;;;;;;;1.44;66.76;101704.97;5076316;28;20295;-72
2021/03/08 09:41:57;;;;;;;5.53;1.60;;;;;;;1.54;66.38;101705.84;5075995;28;20184;-72
2021/03/08 09:44:23;;;;;;;4.83;1.90;;;;;;;1.64;66.21;101699.66;5074543;28;20287;-72
2021/03/08 09:46:55;;;;;;;4.33;1.50;;;;;;;1.38;65.45;101717.25;5074947;28;20184;-72
2021/03/08 09:49:20;;;;;;;3.50;1.80;;;;;;;1.73;65.31;101719.81;5075446;28;20632;-73
2021/03/08 09:51:45;;;;;;;3.40;1.07;;;;;;;1.68;62.89;101711.06;5075326;28;20211;-72
2021/03/08 09:54:11;;;;;;;5.60;1.33;;;;;;;1.60;63.88;101712.84;5075192;28;20212;-72
2021/03/08 09:56:40;;;;;;;2.47;1.30;;;;;;;1.60;64.11;101712.84;5077739;28;20660;-71
2021/03/08 09:59:09;;;;;;;7.00;1.13;;;;;;;1.75;62.92;101718.06;5074120;28;20208;-70
2021/03/08 10:01:36;;;;;;;6.50;1.27;;;;;;;1.67;58.94;101715.44;5074717;28;20176;-71
2021/03/08 10:04:01;;;;;;;8.00;1.47;;;;;;;1.96;58.42;101714.50;5075600;28;20216;-72
2021/03/08 10:06:28;;;;;;;5.00;1.30;;;;;;;2.07;61.31;101718.81;5074069;28;20194;-71
2021/03/08 10:08:55;;;;;;;3.40;1.10;;;;;;;2.30;62.40;101723.13;5058174;28;20172;-71
2021/03/08 10:11:30;;;;;;;3.90;1.37;;;;;;;2.70;61.46;101729.94;5075789;28;20173;-72
2021/03/08 10:13:56;;;;;;;2.67;1.20;;;;;;;2.85;57.87;101722.78;5074827;28;20197;-71
2021/03/08 10:16:26;;;;;;;5.30;1.40;;;;;;;2.47;58.93;101719.50;5074244;28;20170;-71
2021/03/08 10:18:53;;;;;;;4.10;1.30;;;;;;;2.31;59.86;101722.25;5074377;28;20533;-71
2021/03/08 10:21:20;;;;;;;3.70;1.20;;;;;;;2.43;59.62;101728.31;5074117;28;20672;-71
2021/03/08 10:23:45;;;;;;;5.10;1.80;;;;;;;2.82;59.93;101729.84;5073009;28;20206;-71
2021/03/08 10:26:13;;;;;;;3.27;1.10;;;;;;;3.01;56.91;101733.25;5074282;28;20182;-71
2021/03/08 10:28:40;;;;;;;3.93;1.40;;;;;;;3.15;56.41;101722.56;5073258;28;20181;-72
2021/03/08 10:31:16;;;;;;;7.10;1.40;;;;;;;3.09;54.28;101722.63;5072703;28;20166;-72
2021/03/08 10:33:42;;;;;;;2.20;1.50;;;;;;;3.07;54.94;101714.72;5073123;28;20201;-71
2021/03/08 10:36:08;;;;;;;6.13;1.33;;;;;;;3.37;56.37;101724.13;5056189;28;20185;-72
2021/03/08 10:38:33;;;;;;;3.90;1.23;;;;;;;2.86;55.71;101722.78;5072527;28;20204;-72
2021/03/08 10:41:03;;;;;;;2.40;1.30;;;;;;;2.76;55.60;101726.38;5072656;28;20215;-71
2021/03/08 10:43:30;;;;;;;3.07;1.33;;;;;;;2.86;54.78;101735.09;5073842;28;20280;-71
2021/03/08 10:45:58;;;;;;;4.07;1.30;;;;;;;3.26;52.89;101728.63;5056372;28;20261;-72
2021/03/08 10:48:25;;;;;;;2.23;1.03;;;;;;;3.33;53.14;101727.66;5056156;28;20536;-75
2021/03/08 10:50:52;;;;;;;1.57;1.03;;;;;;;3.44;52.11;101720.56;5072216;28;20173;-72
2021/03/08 10:53:19;;;;;;;4.50;1.13;;;;;;;4.06;53.77;101721.63;5071703;28;20202;-71
2021/03/08 10:55:46;;;;;;;6.13;1.20;;;;;;;4.07;51.80;101720.72;5055587;28;20209;-72
2021/03/08 10:58:12;;;;;;;3.73;1.50;;;;;;;4.31;48.92;101711.63;5073392;28;20263;-71
2021/03/08 11:00:39;;;;;;;3.97;1.30;;;;;;;4.63;46.64;101718.25;5073389;28;20174;-72
2021/03/08 11:03:04;;;;;;;2.33;1.33;;;;;;;4.28;45.14;101711.66;5072026;28;20195;-72
2021/03/08 11:05:31;;;;;;;1.90;1.20;;;;;;;4.48;41.62;101708.78;5073420;28;20183;-71
2021/03/08 11:07:56;;;;;;;2.03;1.10;;;;;;;4.32;44.07;101705.44;5073251;28;20630;-71
2021/03/08 11:10:34;;;;;;;3.63;0.90;;;;;;;7.16;42.16;101714.19;5073494;28;20185;-71
2021/03/08 11:13:01;;;;;;;2.73;0.80;;;;;;;8.07;35.77;101704.66;5073248;28;20197;-71
2021/03/08 11:15:26;;;;;;;1.27;0.67;;;;;;;8.10;33.13;101704.56;5072153;28;20487;-72
2021/03/08 11:17:51;;;;;;;2.03;0.87;;;;;;;7.98;34.32;101715.56;5073806;28;20210;-71
2021/03/08 11:20:22;;;;;;;1.30;0.80;;;;;;;8.56;35.18;101714.78;5073459;28;20594;-71
2021/03/08 11:23:05;;;;;;;1.53;0.87;;;;;;;8.48;32.41;101715.91;5072105;28;20197;-71
2021/03/08 11:25:31;;;;;;;1.57;0.67;;;;;;;9.07;29.01;101712.25;5072508;28;20182;-71
2021/03/08 11:27:57;;;;;;;2.00;0.90;;;;;;;8.33;28.40;101712.78;5073513;28;20175;-71
2021/03/08 11:30:27;;;;;;;1.77;0.87;;;;;;;9.02;27.61;101722.19;5073169;28;20193;-71
2021/03/08 11:32:54;;;;;;;1.43;0.97;;;;;;;8.59;30.24;101713.81;5072155;28;20198;-72
2021/03/08 11:35:23;;;;;;;1.30;0.90;;;;;;;9.18;29.64;101716.34;5071879;28;20312;-72